createdAt,value
2022-10-12T00:01:37.020Z,85.5
2022-10-12T00:04:25.769Z,85.3
2022-10-12T00:07:13.491Z,85.1
2022-10-12T00:10:01.383Z,86
2022-10-12T00:12:50.890Z,86.7
2022-10-12T00:15:38.434Z,86.1
2022-10-12T00:18:26.887Z,86.2
2022-10-12T00:21:14.492Z,86.3
2022-10-12T00:24:02.863Z,85.9
2022-10-12T00:26:51.208Z,86.4
2022-10-12T00:29:38.775Z,86.2
2022-10-12T00:32:26.352Z,86.6
2022-10-12T00:35:13.818Z,86.4
2022-10-12T00:38:01.443Z,86.7
2022-10-12T00:40:49.234Z,86.8
2022-10-12T00:43:36.687Z,86.7
2022-10-12T00:46:26.619Z,86.9
2022-10-12T00:49:18.942Z,87
2022-10-12T00:52:10.199Z,87.6
2022-10-12T00:55:00.345Z,87.9
2022-10-12T00:57:49.318Z,87
2022-10-12T01:00:40.183Z,87.2
2022-10-12T01:03:28.678Z,87.4
2022-10-12T01:06:17.819Z,87
2022-10-12T01:09:05.728Z,87.7
2022-10-12T01:11:53.344Z,88.1
2022-10-12T01:14:42.627Z,87.4
2022-10-12T01:17:30.343Z,87.8
2022-10-12T01:20:30.575Z,89
2022-10-12T01:23:31.323Z,88.4
2022-10-12T01:27:13.891Z,89.8
2022-10-12T01:30:14.683Z,88.4
2022-10-12T01:33:06.911Z,87.1
2022-10-12T01:36:02.742Z,86.9
2022-10-12T01:38:57.479Z,87.7
2022-10-12T01:41:52.532Z,87.6
2022-10-12T01:44:45.468Z,87.3
2022-10-12T01:47:33.403Z,87.1
2022-10-12T01:50:23.362Z,87.8
2022-10-12T01:53:35.580Z,89.7
2022-10-12T01:56:30.739Z,88.4
2022-10-12T01:59:27.347Z,88.1
2022-10-12T02:02:27.210Z,87.8
2022-10-12T02:05:24.200Z,88.1
2022-10-12T02:08:20.619Z,87.8
2022-10-12T02:11:11.678Z,88.2
2022-10-12T02:14:01.486Z,87.6
2022-10-12T02:16:55.410Z,87
2022-10-12T02:19:46.371Z,87.9
2022-10-12T02:22:38.423Z,88.9
2022-10-12T02:25:28.870Z,88
2022-10-12T02:28:18.861Z,88.4
2022-10-12T02:31:10.218Z,87.9
2022-10-12T02:34:08.483Z,87.5
2022-10-12T02:36:59.479Z,89.4
2022-10-12T02:39:52.447Z,89.7
2022-10-12T02:43:08.911Z,88.4
2022-10-12T02:46:05.040Z,89.5
2022-10-12T02:48:55.337Z,89.4
2022-10-12T02:51:44.910Z,88.5
2022-10-12T02:54:33.450Z,87.4
2022-10-12T02:57:23.084Z,88.1
2022-10-12T03:00:11.189Z,87.9
2022-10-12T03:02:59.762Z,88.5
2022-10-12T03:05:47.515Z,88.8
2022-10-12T03:08:35.163Z,88.5
2022-10-12T03:11:23.376Z,88.2
2022-10-12T03:14:10.903Z,89.3
2022-10-12T03:16:59.711Z,90
2022-10-12T03:19:47.325Z,88.9
2022-10-12T03:22:34.918Z,88.7
2022-10-12T03:25:22.407Z,88.5
2022-10-12T03:28:10.018Z,90.1
2022-10-12T03:30:57.536Z,89.9
2022-10-12T03:33:45.836Z,89
2022-10-12T03:36:33.575Z,89.1
2022-10-12T03:39:21.519Z,88.6
2022-10-12T03:42:09.414Z,88.8
2022-10-12T03:44:57.230Z,89.1
2022-10-12T03:47:44.852Z,89.3
2022-10-12T03:50:33.123Z,89.2
2022-10-12T03:53:21.667Z,90.5
2022-10-12T03:56:09.565Z,89.7
2022-10-12T03:58:57.132Z,89.6
2022-10-12T04:01:44.967Z,90
2022-10-12T04:04:32.939Z,89.3
2022-10-12T04:07:20.847Z,90
2022-10-12T04:10:08.430Z,89.8
2022-10-12T04:12:56.211Z,90
2022-10-12T04:15:43.839Z,90.3
2022-10-12T04:18:31.839Z,91.2
2022-10-12T04:21:20.942Z,91.7
2022-10-12T04:24:10.304Z,92.6
2022-10-12T04:26:57.995Z,92.4
2022-10-12T04:29:45.643Z,92.9
2022-10-12T04:32:33.325Z,93.1
2022-10-12T04:35:20.854Z,93.2
2022-10-12T04:38:08.658Z,92.2
2022-10-12T04:40:57.659Z,92.4
2022-10-12T04:43:45.381Z,92.1
2022-10-12T04:46:33.351Z,92.1
2022-10-12T04:49:20.882Z,92.5
2022-10-12T04:52:08.473Z,91.9
2022-10-12T04:54:56.175Z,91
2022-10-12T04:57:44.226Z,90.2
2022-10-12T05:00:32.223Z,90.2
2022-10-12T05:03:20.703Z,91.2
2022-10-12T05:06:08.583Z,90.8
2022-10-12T05:08:56.824Z,91.8
2022-10-12T05:11:44.403Z,90.5
2022-10-12T05:14:35.785Z,89.8
2022-10-12T05:17:23.792Z,91.4
2022-10-12T05:20:11.442Z,91.3
2022-10-12T05:22:59.548Z,92.2
2022-10-12T05:25:47.218Z,92.7
2022-10-12T05:28:39.822Z,92.3
2022-10-12T05:31:28.732Z,91.8
2022-10-12T05:34:16.423Z,92.2
2022-10-12T05:37:03.945Z,92.7
2022-10-12T05:39:51.435Z,93.8
2022-10-12T05:42:39.685Z,93.4
2022-10-12T05:45:29.195Z,92.4
2022-10-12T05:48:17.598Z,91.9
2022-10-12T05:51:05.405Z,92.8
2022-10-12T05:53:52.952Z,92.6
2022-10-12T05:56:40.436Z,93.6
2022-10-12T05:59:28.285Z,93.4
2022-10-12T06:02:16.007Z,93.4
2022-10-12T06:05:03.729Z,94
2022-10-12T06:07:52.119Z,94.9
2022-10-12T06:10:39.844Z,95.1
2022-10-12T06:13:32.127Z,95.4
2022-10-12T06:16:20.213Z,95.5
2022-10-12T06:19:07.960Z,95.7
2022-10-12T06:21:56.540Z,95.5
2022-10-12T06:24:44.096Z,95.8
2022-10-12T06:27:32.187Z,95.8
2022-10-12T06:30:20.408Z,96.4
2022-10-12T06:33:08.191Z,96.3
2022-10-12T06:35:55.819Z,96.4
2022-10-12T06:38:43.485Z,96.8
2022-10-12T06:41:31.405Z,97.2
2022-10-12T06:44:20.255Z,97.2
2022-10-12T06:47:07.817Z,98
2022-10-12T06:49:55.340Z,98.3
2022-10-12T06:52:42.907Z,98.3
2022-10-12T06:55:32.236Z,98.6
2022-10-12T06:58:23.940Z,98.7
2022-10-12T07:01:11.532Z,99.1
2022-10-12T07:04:00.873Z,99.3
2022-10-12T07:06:48.901Z,99.7
2022-10-12T07:09:36.408Z,100
2022-10-12T07:12:24.012Z,100
2022-10-12T07:15:11.690Z,100
2022-10-12T07:17:59.396Z,100
2022-10-12T07:20:46.921Z,100
2022-10-12T07:23:34.708Z,100
2022-10-12T07:26:22.867Z,100
2022-10-12T07:29:10.732Z,100
2022-10-12T07:31:58.229Z,100
2022-10-12T07:34:46.085Z,100
2022-10-12T07:37:33.744Z,100
2022-10-12T07:40:21.499Z,100
2022-10-12T07:43:15.985Z,100
2022-10-12T07:46:04.539Z,100
2022-10-12T07:48:52.845Z,99.6
2022-10-12T07:51:40.430Z,99
2022-10-12T07:54:29.608Z,99
2022-10-12T07:57:18.347Z,99.1
2022-10-12T08:00:06.172Z,99
2022-10-12T08:02:54.740Z,98.7
2022-10-12T08:05:42.532Z,99.2
2022-10-12T08:08:30.616Z,97.9
2022-10-12T08:11:19.202Z,97.7
2022-10-12T08:14:08.192Z,97.2
2022-10-12T08:16:59.508Z,95.7
2022-10-12T08:19:47.332Z,95.2
2022-10-12T08:22:34.921Z,94.2
2022-10-12T08:25:22.557Z,94.9
2022-10-12T08:28:10.169Z,95.3
2022-10-12T08:30:58.064Z,94.9
2022-10-12T08:33:50.337Z,93.5
2022-10-12T08:36:38.049Z,94.2
2022-10-12T08:39:25.628Z,94.3
2022-10-12T08:42:13.448Z,93.6
2022-10-12T08:45:17.736Z,92.7
2022-10-12T08:48:18.848Z,91.8
2022-10-12T08:51:11.200Z,90.8
2022-10-12T08:54:03.194Z,90.3
2022-10-12T08:56:52.953Z,90.4
2022-10-12T08:59:42.237Z,89.8
2022-10-12T09:02:30.533Z,89.1
2022-10-12T09:05:34.759Z,89.4
2022-10-12T09:08:29.075Z,89.6
2022-10-12T09:11:29.802Z,89
2022-10-12T09:14:33.693Z,88.7
2022-10-12T09:17:24.186Z,89.3
2022-10-12T09:20:16.831Z,89.1
2022-10-12T09:23:07.509Z,88
2022-10-12T09:26:08.404Z,87.4
2022-10-12T09:29:01.502Z,84.8
2022-10-12T09:32:06.512Z,85.6
2022-10-12T09:35:13.588Z,85
2022-10-12T09:38:01.837Z,84.9
2022-10-12T09:40:51.437Z,85.7
2022-10-12T09:43:39.105Z,82.7
2022-10-12T09:46:26.924Z,82.7
2022-10-12T09:49:22.937Z,81.2
2022-10-12T09:52:25.498Z,79.1
2022-10-12T09:55:16.110Z,78.1
2022-10-12T09:58:10.782Z,77.8
2022-10-12T10:01:04.916Z,75.3
2022-10-12T10:04:10.629Z,74.6
2022-10-12T10:07:02.455Z,74.5
2022-10-12T10:10:06.473Z,74
2022-10-12T10:13:02.368Z,69.8
2022-10-12T10:15:51.293Z,70.2
2022-10-12T10:18:50.293Z,71.5
2022-10-12T10:21:43.123Z,70.4
2022-10-12T10:24:31.053Z,69.8
2022-10-12T10:27:20.304Z,69.5
2022-10-12T10:30:30.140Z,67.2
2022-10-12T10:33:20.995Z,68.9
2022-10-12T10:36:08.686Z,69.4
2022-10-12T10:39:04.778Z,70.7
2022-10-12T10:42:03.244Z,70.9
2022-10-12T10:44:56.187Z,72
2022-10-12T10:47:46.382Z,72
2022-10-12T10:50:34.706Z,70.6
2022-10-12T10:53:25.976Z,69.3
2022-10-12T10:56:18.456Z,71.7
2022-10-12T10:59:11.003Z,70.7
2022-10-12T11:02:05.170Z,66.4
2022-10-12T11:05:07.033Z,67
2022-10-12T11:08:02.996Z,67.9
2022-10-12T11:10:56.991Z,67
2022-10-12T11:13:49.009Z,65.3
2022-10-12T11:16:45.277Z,65
2022-10-12T11:19:39.385Z,65.9
2022-10-12T11:22:33.284Z,67.2
2022-10-12T11:25:32.149Z,66.4
2022-10-12T11:28:27.029Z,66.3
2022-10-12T11:31:18.108Z,66.4
2022-10-12T11:34:13.622Z,67.3
2022-10-12T11:37:19.275Z,67.3
2022-10-12T11:40:13.627Z,67.8
2022-10-12T11:43:06.840Z,66.1
2022-10-12T11:46:00.564Z,67.2
2022-10-12T11:48:52.916Z,67.8
2022-10-12T11:51:47.728Z,68.5
2022-10-12T11:54:38.004Z,69
2022-10-12T11:57:32.659Z,68.1
2022-10-12T12:00:23.541Z,68.3
2022-10-12T12:03:18.504Z,68.1
2022-10-12T12:06:14.609Z,68.1
2022-10-12T12:09:35.350Z,66.7
2022-10-12T12:12:26.630Z,64.7
2022-10-12T12:15:14.673Z,63
2022-10-12T12:18:07.499Z,61.6
2022-10-12T12:20:59.097Z,61.3
2022-10-12T12:23:50.941Z,62.2
2022-10-12T12:26:40.451Z,62
2022-10-12T12:29:33.293Z,62.5
2022-10-12T12:32:21.232Z,63
2022-10-12T12:35:11.776Z,62.6
2022-10-12T12:38:15.145Z,63.5
2022-10-12T12:41:11.787Z,64.6
2022-10-12T12:44:01.861Z,64.7
2022-10-12T12:46:50.762Z,64.1
2022-10-12T12:50:22.412Z,62.5
2022-10-12T12:53:20.150Z,63.4
2022-10-12T12:56:08.651Z,62.1
2022-10-12T12:59:05.529Z,62.6
2022-10-12T13:02:17.988Z,61
2022-10-12T13:05:27.565Z,61.7
2022-10-12T13:09:19.017Z,60
2022-10-12T13:12:52.440Z,58.1
2022-10-12T13:15:56.377Z,55.7
2022-10-12T13:19:01.434Z,57.7
2022-10-12T13:21:51.430Z,56.1
2022-10-12T13:24:41.603Z,56.5
2022-10-12T13:27:33.039Z,58.1
2022-10-12T13:30:30.341Z,58.2
2022-10-12T13:33:26.675Z,59.6
2022-10-12T13:36:23.546Z,60.3
2022-10-12T13:39:14.213Z,61.7
2022-10-12T13:42:03.980Z,62.6
2022-10-12T13:44:52.410Z,61.9
2022-10-12T13:47:40.089Z,61.4
2022-10-12T13:50:28.223Z,60.8
2022-10-12T13:53:17.455Z,60.4
2022-10-12T13:56:05.779Z,59.3
2022-10-12T13:58:58.526Z,58.9
2022-10-12T14:01:48.277Z,57.5
2022-10-12T14:04:40.247Z,58
2022-10-12T14:07:29.058Z,57.3
2022-10-12T14:10:21.039Z,56.8
2022-10-12T14:13:14.608Z,55.8
2022-10-12T14:16:10.308Z,54.9
2022-10-12T14:18:59.406Z,54.8
2022-10-12T14:22:03.925Z,55.3
2022-10-12T14:24:52.405Z,55.2
2022-10-12T14:27:55.701Z,56
2022-10-12T14:30:45.739Z,56.5
2022-10-12T14:33:37.755Z,57.3
2022-10-12T14:36:25.532Z,57.8
2022-10-12T14:39:13.805Z,58.9
2022-10-12T14:42:05.000Z,59.1
2022-10-12T14:45:05.604Z,59.7
2022-10-12T14:48:08.684Z,60.3
2022-10-12T14:51:02.477Z,61.3
2022-10-12T14:53:50.333Z,62.1
2022-10-12T14:56:45.624Z,62.6
2022-10-12T14:59:33.414Z,63.4
2022-10-12T15:02:21.384Z,64.3
2022-10-12T15:05:12.191Z,64.2
2022-10-12T15:08:02.713Z,65.5
2022-10-12T15:10:53.537Z,66.3
2022-10-12T15:13:41.217Z,66.8
2022-10-12T15:16:29.236Z,67.3
2022-10-12T15:19:18.741Z,67.7
2022-10-12T15:22:06.239Z,68.4
2022-10-12T15:24:59.379Z,69
2022-10-12T15:27:47.045Z,68.9
2022-10-12T15:30:36.041Z,69.6
2022-10-12T15:33:27.991Z,70.3
2022-10-12T15:36:16.225Z,70.7
2022-10-12T15:39:03.835Z,71
2022-10-12T15:41:51.452Z,71.4
2022-10-12T15:44:39.248Z,71.7
2022-10-12T15:47:26.917Z,72
2022-10-12T15:50:14.518Z,72.6
2022-10-12T15:53:03.919Z,73.5
2022-10-12T15:55:54.872Z,73.6
2022-10-12T15:58:42.857Z,73.7
2022-10-12T16:01:30.807Z,73.8
2022-10-12T16:04:21.227Z,74.1
2022-10-12T16:07:08.897Z,74.6
2022-10-12T16:09:56.465Z,74.9
2022-10-12T16:12:43.991Z,75.4
2022-10-12T16:15:33.652Z,75.6
2022-10-12T16:18:21.870Z,76
2022-10-12T16:21:09.468Z,76.5
2022-10-12T16:23:57.633Z,76.6
2022-10-12T16:26:45.260Z,76.9
2022-10-12T16:29:34.553Z,77.8
2022-10-12T16:32:22.131Z,78.1
2022-10-12T16:35:10.290Z,78.6
2022-10-12T16:37:58.737Z,78.7
2022-10-12T16:40:46.587Z,78.8
2022-10-12T16:43:34.446Z,78.9
2022-10-12T16:46:22.528Z,79.3
2022-10-12T16:49:10.179Z,79.4
2022-10-12T16:51:57.818Z,79.7
2022-10-12T16:54:45.409Z,79.6
2022-10-12T16:57:33.408Z,79.3
2022-10-12T17:00:21.951Z,79.3
2022-10-12T17:03:09.826Z,79.2
2022-10-12T17:05:58.701Z,79.6
2022-10-12T17:08:46.385Z,80
2022-10-12T17:11:34.317Z,79.3
2022-10-12T17:14:23.547Z,79.2
2022-10-12T17:17:11.130Z,78.9
2022-10-12T17:19:58.838Z,78.5
2022-10-12T17:22:46.465Z,78.6
2022-10-12T17:25:34.030Z,78.4
2022-10-12T17:28:21.835Z,79.2
2022-10-12T17:31:11.757Z,79.2
2022-10-12T17:33:59.559Z,79.7
2022-10-12T17:36:47.473Z,79.6
2022-10-12T17:39:36.294Z,80.3
2022-10-12T17:42:26.829Z,80.1
2022-10-12T17:45:14.472Z,80.3
2022-10-12T17:48:02.200Z,80.5
2022-10-12T17:50:50.489Z,80.2
2022-10-12T17:53:38.129Z,80.5
2022-10-12T17:56:27.081Z,81
2022-10-12T17:59:14.713Z,81.1
2022-10-12T18:02:06.877Z,80.6
2022-10-12T18:04:56.845Z,80.4
2022-10-12T18:07:44.428Z,80.7
2022-10-12T18:10:32.117Z,80.8
2022-10-12T18:13:24.056Z,80.8
2022-10-12T18:16:12.572Z,80.2
2022-10-12T18:19:02.673Z,80.7
2022-10-12T18:21:52.216Z,80.6
2022-10-12T18:24:39.804Z,80.6
2022-10-12T18:27:27.446Z,80.3
2022-10-12T18:30:14.960Z,80
2022-10-12T18:33:02.727Z,80.8
2022-10-12T18:35:50.451Z,80.7
2022-10-12T18:38:39.178Z,80.6
2022-10-12T18:41:27.009Z,81
2022-10-12T18:44:15.183Z,81.3
2022-10-12T18:47:05.701Z,81.2
2022-10-12T18:49:53.539Z,81.2
2022-10-12T18:52:41.056Z,81
2022-10-12T18:55:28.718Z,81.2
2022-10-12T18:58:17.139Z,81.5
2022-10-12T19:01:05.011Z,82
2022-10-12T19:03:55.068Z,82.5
2022-10-12T19:06:44.759Z,82.3
2022-10-12T19:09:32.743Z,83
2022-10-12T19:12:21.324Z,82.8
2022-10-12T19:15:08.932Z,82.9
2022-10-12T19:17:56.612Z,83
2022-10-12T19:20:45.143Z,83.1
2022-10-12T19:23:33.146Z,83.3
2022-10-12T19:26:21.087Z,83.1
2022-10-12T19:29:10.992Z,83.1
2022-10-12T19:31:59.387Z,83.4
2022-10-12T19:34:49.499Z,83.5
2022-10-12T19:37:37.207Z,83.3
2022-10-12T19:40:25.167Z,83.2
2022-10-12T19:43:12.815Z,83.1
2022-10-12T19:46:00.477Z,82.6
2022-10-12T19:48:48.935Z,82.6
2022-10-12T19:51:39.035Z,83.1
2022-10-12T19:54:27.573Z,83
2022-10-12T19:57:15.166Z,83.6
2022-10-12T20:00:02.939Z,83.1
2022-10-12T20:02:53.446Z,84
2022-10-12T20:05:41.237Z,83.7
2022-10-12T20:08:31.279Z,83.7
2022-10-12T20:11:24.543Z,83.7
2022-10-12T20:14:13.260Z,84.5
2022-10-12T20:17:06.412Z,84.2
2022-10-12T20:19:54.918Z,83.6
2022-10-12T20:22:42.457Z,84.2
2022-10-12T20:25:30.068Z,84.4
2022-10-12T20:28:17.847Z,83.6
2022-10-12T20:31:06.619Z,83.9
2022-10-12T20:33:54.977Z,84.1
2022-10-12T20:36:42.967Z,84.7
2022-10-12T20:39:32.475Z,84.8
2022-10-12T20:42:22.129Z,84.8
2022-10-12T20:45:10.246Z,85.1
2022-10-12T20:47:59.180Z,85.4
2022-10-12T20:50:47.144Z,86
2022-10-12T20:53:34.971Z,85.8
2022-10-12T20:56:22.950Z,86.1
2022-10-12T20:59:10.781Z,86.2
2022-10-12T21:01:58.437Z,87
2022-10-12T21:04:46.131Z,86.6
2022-10-12T21:07:34.936Z,86.2
2022-10-12T21:10:22.591Z,86.3
2022-10-12T21:13:10.225Z,86.1
2022-10-12T21:15:57.868Z,85.6
2022-10-12T21:18:45.490Z,86.3
2022-10-12T21:21:33.885Z,87.2
2022-10-12T21:24:21.750Z,87.2
2022-10-12T21:27:09.238Z,87.3
2022-10-12T21:29:56.830Z,87.6
2022-10-12T21:32:44.360Z,87.8
2022-10-12T21:35:32.138Z,87.5
2022-10-12T21:38:20.869Z,88
2022-10-12T21:41:08.613Z,87.9
2022-10-12T21:43:59.261Z,87.6
2022-10-12T21:46:46.958Z,87.4
2022-10-12T21:49:34.566Z,87.1
2022-10-12T21:52:22.111Z,87.7
2022-10-12T21:55:09.692Z,87.8
2022-10-12T21:57:57.396Z,88
2022-10-12T22:00:45.810Z,88.1
2022-10-12T22:03:34.609Z,87.6
2022-10-12T22:06:22.441Z,88.5
2022-10-12T22:09:11.942Z,88.5
2022-10-12T22:12:03.738Z,88.5
2022-10-12T22:14:51.705Z,88.6
2022-10-12T22:17:39.252Z,87.9
2022-10-12T22:20:26.833Z,88.5
2022-10-12T22:23:14.493Z,88.3
2022-10-12T22:26:02.116Z,88.6
2022-10-12T22:28:54.651Z,88.1
2022-10-12T22:31:42.551Z,88.8
2022-10-12T22:34:31.068Z,88.5
2022-10-12T22:37:19.507Z,88.6
2022-10-12T22:40:07.606Z,88.6
2022-10-12T22:42:56.009Z,88.9
2022-10-12T22:45:43.940Z,89.3
2022-10-12T22:48:31.471Z,89.1
2022-10-12T22:51:20.923Z,89
2022-10-12T22:54:14.731Z,89.5
2022-10-12T22:57:02.386Z,89.3
2022-10-12T22:59:50.024Z,89.6
2022-10-12T23:02:37.516Z,89.3
2022-10-12T23:05:25.122Z,89.2
2022-10-12T23:08:13.172Z,89.4
2022-10-12T23:11:01.099Z,88.8
2022-10-12T23:13:50.050Z,89
2022-10-12T23:16:38.174Z,89.4
2022-10-12T23:19:25.802Z,89.3
2022-10-12T23:22:13.562Z,90.1
2022-10-12T23:25:01.451Z,89.9
2022-10-12T23:27:50.242Z,90
2022-10-12T23:30:37.794Z,90.1
2022-10-12T23:33:25.262Z,90.1
2022-10-12T23:36:13.008Z,90
2022-10-12T23:39:02.633Z,89.9
2022-10-12T23:41:51.088Z,89.1
2022-10-12T23:44:38.518Z,88.6
2022-10-12T23:47:26.408Z,89.6
2022-10-12T23:50:13.938Z,90.7
2022-10-12T23:53:01.584Z,90
2022-10-12T23:55:49.308Z,90.3
2022-10-12T23:58:37.423Z,90.2
